Portada
METAR-TAF:

METAR-TAF

Aeroports :

Vavaʻu, Tonga

latitud: 18-35-07S, longitud: 173-57-42W, altitud: 72 m

Observació

L'informe es va fer fa 34 minuts, a les 15:00 UTC
Vent 8 kt del Est
Temperatura 24°C
Humitat 89%
Pressió 1012 hPa
Visibilitat 10 km o més
Escasses núvols a una alçada de 900 ft
Cel ennuvolat a una alçada de 1700 ft

METAR: NFTV 161500Z 09008KT 9999 FEW009 BKN017 24/22 Q1012

Hora: 04:34 (15:34 UTC)

Pronòstic

L'informe es va fer fa 4 hores i 28 minuts, a les 11:06 UTC
Pronòstic vàlid del 16 a les 12 UTC al 17 a les 12 UTC
Vent 7 kt del Sud-Est
Visibilitat 10 km o més
Núvols disperses a una alçada de 1700 ft

TAF: NFTV 161106Z 1612/1712 13007KT 9999 SCT017

Observacions i pronòstics meteorològics de més de 4000 aeroports (METAR i TAF).

Les estacions disponibles són els punts grocs i vermells al mapa.

Posi el ratolí al punt desitjat per veure el nom de l'estació.

Feu clic per veure les observacions i els pronòstics meteorològics.

Per canviar el mapa: feu clic els botons verds amb una creu de color negre per apropar; al botó verd amb un guió per allunyar la imatge; o en les fletxes verdes per a mapes adjacents.


METAR-TAF: